Delta Virtual Airport Information Service

Quito Mariscal Sucre International Airport

ICAO: SEQM Country: Ecuador
Latitude: -0.1133 Longitude: -78.3586
Latest Arrival : DAL633 (1) (KATL-SEQM) Latest Departure : JBU2850 (SEQM-KFLL)


WX CaptureLIVE
Data provided by noaa.gov | Fetched at 11:47:48

METAR : SEQM 281600Z 32003KT 9999 FEW030 24/07 Q1026 NOSIG RMK A3032

TAF : SEQM 281020Z 2812/2912 VRB03KT 9999 FEW026 BKN100 BECMG 2818/2820 36012KT SCT030 SCT100 TEMPO 2820/2822 TSRA FEW020CB SCT030TCU BKN100 BECMG 2900/2902 06004KT SCT026 SCT100 BECMG 2904/2906 BKN080 TX23/2819Z TN10/2911Z


Runway Data for SEQM
Data provided by openaviationdata.com

Runway ID Mag Var Hdg Length Elevation Surface ILS Freq ILS Id ILS Slope

Quito Mariscal Sucre International Airport, Ecuador
Use only for reference purposes



Not for navigational purposes.